Time;durP1;ratioP1;P1;durP2;ratioP2;P2;SDS_P1;SDS_P2;PMS_P1;PMS_P2;Temp;Humidity;BMP_temperature;BMP_pressure;BME280_temperature;BME280_humidity;BME280_pressure;Samples;Min_cycle;Max_cycle;Signal;HPM_P1;HPM_P2
2021/11/21 00:01:01;;;;;;;41.73;21.43;;;;;;;8.44;80.77;100551.38;5042541;28;20275;-70
2021/11/21 00:03:27;;;;;;;38.07;20.70;;;;;;;8.43;80.41;100550.50;5046479;28;20212;-71
2021/11/21 00:05:54;;;;;;;40.07;21.47;;;;;;;8.44;80.40;100543.41;5039877;28;20222;-71
2021/11/21 00:08:20;;;;;;;35.30;18.23;;;;;;;8.45;80.54;100542.47;5041512;28;20201;-71
2021/11/21 00:10:47;;;;;;;40.47;21.57;;;;;;;8.44;80.96;100535.44;5041131;28;20206;-71
2021/11/21 00:13:16;;;;;;;35.37;19.70;;;;;;;8.38;80.43;100528.69;5044239;28;20472;-70
2021/11/21 00:15:42;;;;;;;35.27;19.07;;;;;;;8.40;80.30;100518.00;5045444;28;20229;-70
2021/11/21 00:18:10;;;;;;;33.37;19.13;;;;;;;8.40;80.21;100515.34;5046485;28;20293;-71
2021/11/21 00:20:38;;;;;;;39.67;20.70;;;;;;;8.41;80.31;100519.72;5040217;28;20207;-71
2021/11/21 00:23:05;;;;;;;37.20;19.03;;;;;;;8.38;80.19;100511.94;5042434;28;20214;-71
2021/11/21 00:25:33;;;;;;;37.00;19.27;;;;;;;8.38;79.94;100506.63;5040037;28;20218;-71
2021/11/21 00:27:59;;;;;;;39.07;20.13;;;;;;;8.37;79.43;100503.09;5037055;28;20210;-71
2021/11/21 00:30:27;;;;;;;33.67;19.57;;;;;;;8.39;79.82;100497.72;5038409;28;20232;-71
2021/11/21 00:32:54;;;;;;;41.87;20.33;;;;;;;8.41;79.71;100495.84;5036504;28;20320;-71
2021/11/21 00:35:21;;;;;;;36.73;19.73;;;;;;;8.37;80.06;100494.28;5045468;28;20197;-71
2021/11/21 00:37:48;;;;;;;34.83;19.27;;;;;;;8.33;80.17;100483.84;5042847;28;20207;-70
2021/11/21 00:40:15;;;;;;;37.30;19.90;;;;;;;8.33;79.97;100481.19;5039166;28;20209;-71
2021/11/21 00:42:41;;;;;;;38.37;19.63;;;;;;;8.32;80.26;100487.44;5045368;28;20272;-71
2021/11/21 00:45:11;;;;;;;31.83;14.80;;;;;;;8.33;80.13;100472.38;5039353;28;20212;-70
2021/11/21 00:47:40;;;;;;;32.97;18.60;;;;;;;8.35;79.90;100467.84;5038274;28;20212;-71
2021/11/21 00:50:08;;;;;;;36.77;18.70;;;;;;;8.32;80.09;100471.50;5038380;28;20289;-71
2021/11/21 00:52:35;;;;;;;37.43;19.70;;;;;;;8.33;80.15;100464.41;5034688;28;20222;-71
2021/11/21 00:55:09;;;;;;;35.07;18.23;;;;;;;8.32;79.92;100463.56;5039364;28;20675;-71
2021/11/21 00:57:36;;;;;;;30.87;18.03;;;;;;;8.31;79.73;100464.47;5042461;28;20205;-71
2021/11/21 01:00:03;;;;;;;32.43;18.33;;;;;;;8.32;79.72;100466.22;5041988;28;20213;-71
2021/11/21 01:02:30;;;;;;;34.23;17.07;;;;;;;8.30;80.15;100456.59;5042302;28;20229;-71
2021/11/21 01:05:01;;;;;;;31.37;17.57;;;;;;;8.30;80.03;100451.28;5038810;28;20686;-71
2021/11/21 01:07:27;;;;;;;29.73;16.37;;;;;;;8.29;79.85;100450.44;5034610;28;20221;-71
2021/11/21 01:09:54;;;;;;;33.87;18.50;;;;;;;8.28;79.96;100448.72;5042540;28;20591;-71
2021/11/21 01:12:20;;;;;;;34.60;18.10;;;;;;;8.27;79.51;100441.69;5046991;28;20198;-71
2021/11/21 01:14:48;;;;;;;38.40;20.50;;;;;;;8.26;80.22;100439.97;5050216;28;20303;-71
2021/11/21 01:17:14;;;;;;;33.63;19.47;;;;;;;8.25;79.55;100432.09;5044884;28;20253;-72
2021/11/21 01:19:43;;;;;;;33.37;18.33;;;;;;;8.22;79.86;100435.81;5050373;28;20208;-71
2021/11/21 01:22:12;;;;;;;34.77;19.20;;;;;;;8.20;79.77;100443.00;5048923;28;20210;-71
2021/11/21 01:24:38;;;;;;;35.73;19.03;;;;;;;8.20;80.04;100440.34;5048329;28;20205;-71
2021/11/21 01:27:05;;;;;;;38.33;20.50;;;;;;;8.21;79.58;100447.38;5050333;28;20598;-71
2021/11/21 01:29:32;;;;;;;38.27;20.30;;;;;;;8.20;79.97;100432.41;5047270;28;20201;-71
2021/11/21 01:31:58;;;;;;;39.37;20.23;;;;;;;8.21;79.37;100435.91;5050579;28;20212;-71
2021/11/21 01:34:25;;;;;;;35.70;20.10;;;;;;;8.20;79.73;100435.03;5046584;28;20229;-70
2021/11/21 01:36:51;;;;;;;37.50;19.33;;;;;;;8.20;80.37;100439.50;5041476;28;20217;-71
2021/11/21 01:39:19;;;;;;;38.67;19.20;;;;;;;8.18;80.15;100436.94;5039089;28;20293;-71
2021/11/21 01:41:47;;;;;;;33.70;18.03;;;;;;;8.18;80.14;100428.13;5053156;28;20566;-72
2021/11/21 01:44:16;;;;;;;33.07;18.07;;;;;;;8.17;80.06;100421.94;5048166;28;20609;-71
2021/11/21 01:46:43;;;;;;;33.00;17.47;;;;;;;8.18;79.97;100428.97;5035420;28;20279;-72
2021/11/21 01:49:10;;;;;;;34.37;18.30;;;;;;;8.20;80.43;100429.75;5043347;28;20210;-71
2021/11/21 01:51:37;;;;;;;31.23;17.77;;;;;;;8.16;79.84;100425.53;5043692;28;20214;-71
2021/11/21 01:54:04;;;;;;;33.87;18.60;;;;;;;8.16;80.15;100417.59;5048774;28;20593;-72
2021/11/21 01:56:33;;;;;;;34.97;17.77;;;;;;;8.16;80.09;100412.28;5047513;28;20611;-72
2021/11/21 01:58:59;;;;;;;32.17;18.17;;;;;;;8.17;80.29;100397.22;5049773;28;20209;-72
2021/11/21 02:01:26;;;;;;;36.97;18.93;;;;;;;8.17;80.64;100398.06;5043181;28;20205;-72
2021/11/21 02:03:53;;;;;;;36.57;18.20;;;;;;;8.19;80.69;100388.25;5030113;28;20702;-71
2021/11/21 02:06:20;;;;;;;37.93;18.97;;;;;;;8.18;80.63;100399.78;5045748;28;20564;-71
2021/11/21 02:08:46;;;;;;;35.83;19.53;;;;;;;8.16;80.43;100384.91;5048164;28;20212;-72
2021/11/21 02:11:13;;;;;;;42.03;21.17;;;;;;;8.15;80.61;100389.34;5046766;28;20659;-72
2021/11/21 02:13:41;;;;;;;42.53;19.33;;;;;;;8.18;80.63;100381.22;5048588;28;20241;-72
2021/11/21 02:16:08;;;;;;;33.37;18.30;;;;;;;8.19;80.09;100374.97;5045585;28;20228;-71
2021/11/21 02:18:35;;;;;;;33.90;17.97;;;;;;;8.18;79.85;100367.97;5030327;28;20213;-72
2021/11/21 02:21:03;;;;;;;41.17;20.43;;;;;;;8.14;80.22;100366.41;5042455;28;20206;-71
2021/11/21 02:23:30;;;;;;;37.50;18.67;;;;;;;8.13;80.98;100358.53;5048360;28;20674;-72
2021/11/21 02:25:57;;;;;;;32.07;18.10;;;;;;;8.12;81.13;100359.50;5039032;28;20234;-72
2021/11/21 02:28:24;;;;;;;36.20;18.97;;;;;;;8.12;81.11;100352.38;5044470;28;20682;-72
2021/11/21 02:30:51;;;;;;;36.03;17.73;;;;;;;8.12;81.22;100357.69;5036865;28;20217;-71
2021/11/21 02:33:20;;;;;;;38.37;18.27;;;;;;;8.12;81.40;100356.84;5037392;28;20734;-72
2021/11/21 02:35:50;;;;;;;33.73;18.50;;;;;;;8.10;81.31;100364.88;5032249;28;20233;-72
2021/11/21 02:38:20;;;;;;;36.00;18.47;;;;;;;8.09;81.32;100351.69;5050344;28;20209;-72
2021/11/21 02:40:48;;;;;;;37.37;19.67;;;;;;;8.08;81.73;100360.59;5044839;28;20205;-71
2021/11/21 02:43:16;;;;;;;32.90;17.00;;;;;;;8.06;81.48;100352.72;5048033;28;20211;-71
2021/11/21 02:45:43;;;;;;;36.70;18.77;;;;;;;8.05;82.52;100350.19;5050571;28;20226;-72
2021/11/21 02:48:10;;;;;;;37.03;18.23;;;;;;;8.05;81.98;100350.19;5044829;28;20218;-71
2021/11/21 02:50:37;;;;;;;35.80;17.30;;;;;;;8.04;82.22;100341.38;5041824;28;20201;-72
2021/11/21 02:53:04;;;;;;;35.77;18.87;;;;;;;8.04;81.84;100337.88;5057591;28;20221;-72
2021/11/21 02:55:34;;;;;;;34.77;19.00;;;;;;;8.02;82.56;100333.50;5032721;28;20664;-72
2021/11/21 02:58:02;;;;;;;35.47;18.00;;;;;;;8.02;82.19;100330.84;5049165;28;20213;-72
2021/11/21 03:00:29;;;;;;;33.03;17.83;;;;;;;8.02;82.86;100327.34;5038956;28;20198;-72
2021/11/21 03:02:55;;;;;;;33.30;17.07;;;;;;;8.01;82.78;100328.28;5044512;28;20216;-71
2021/11/21 03:05:23;;;;;;;32.10;16.70;;;;;;;8.03;82.10;100326.41;5033996;28;20564;-72
2021/11/21 03:07:50;;;;;;;31.23;16.70;;;;;;;8.02;82.76;100327.34;5030798;28;20205;-72
2021/11/21 03:10:19;;;;;;;32.73;18.17;;;;;;;8.01;82.80;100318.53;5044716;28;20206;-72
2021/11/21 03:12:49;;;;;;;31.23;16.43;;;;;;;8.02;82.85;100327.34;5041423;28;20210;-71
2021/11/21 03:15:16;;;;;;;32.83;17.10;;;;;;;8.03;83.05;100313.16;5047164;28;20278;-71
2021/11/21 03:17:44;;;;;;;36.93;18.40;;;;;;;8.03;83.40;100313.16;5049006;28;20236;-72
2021/11/21 03:20:12;;;;;;;32.90;16.20;;;;;;;8.04;83.44;100312.22;5053899;28;20204;-72
2021/11/21 03:22:39;;;;;;;32.83;16.80;;;;;;;8.04;83.45;100317.50;5050620;28;20274;-72
2021/11/21 03:25:06;;;;;;;30.73;15.83;;;;;;;8.05;84.00;100313.91;5045785;28;20206;-72
2021/11/21 03:27:33;;;;;;;31.43;17.23;;;;;;;8.05;83.00;100313.91;5044333;22;20241;-73
2021/11/21 03:30:00;;;;;;;29.50;16.60;;;;;;;8.06;83.49;100312.94;5001606;28;20222;-70
2021/11/21 03:32:27;;;;;;;29.80;15.70;;;;;;;8.06;83.81;100305.00;4994909;28;20211;-72
2021/11/21 03:34:54;;;;;;;30.80;15.83;;;;;;;8.04;83.11;100314.00;5005503;28;20237;-69
2021/11/21 03:37:21;;;;;;;31.67;17.07;;;;;;;8.04;83.86;100300.75;4996100;28;20326;-71
2021/11/21 03:39:47;;;;;;;31.47;15.87;;;;;;;8.04;83.47;100293.66;4999958;28;20219;-73
2021/11/21 03:42:14;;;;;;;28.70;16.83;;;;;;;8.04;83.33;100296.28;5002145;28;20217;-73
2021/11/21 03:44:40;;;;;;;34.33;17.67;;;;;;;8.04;84.19;100298.94;5012320;28;20206;-73
2021/11/21 03:47:08;;;;;;;30.47;16.60;;;;;;;8.05;84.00;100308.63;5013521;28;20227;-70
2021/11/21 03:49:35;;;;;;;28.17;15.47;;;;;;;8.05;83.78;100300.66;4999721;28;20210;-73
2021/11/21 03:52:02;;;;;;;29.43;15.47;;;;;;;8.05;83.83;100299.81;5013374;28;20202;-73
2021/11/21 03:54:28;;;;;;;27.33;16.60;;;;;;;8.03;84.28;100299.88;4998766;28;20230;-73
2021/11/21 03:56:55;;;;;;;30.67;17.47;;;;;;;8.04;83.97;100292.78;5012586;28;20226;-73
2021/11/21 03:59:22;;;;;;;28.47;16.63;;;;;;;8.02;83.99;100293.72;5011063;28;20326;-72
2021/11/21 04:01:50;;;;;;;30.13;15.77;;;;;;;8.02;83.88;100298.19;5010595;28;20211;-73
2021/11/21 04:04:18;;;;;;;29.80;17.10;;;;;;;8.03;84.71;100297.25;4998739;28;20669;-72
2021/11/21 04:06:45;;;;;;;27.83;15.07;;;;;;;8.04;84.58;100301.59;5006059;28;20235;-73
2021/11/21 04:09:11;;;;;;;29.93;16.63;;;;;;;8.04;84.13;100293.66;4995759;28;20207;-73
2021/11/21 04:11:38;;;;;;;26.80;15.77;;;;;;;8.04;84.65;100296.28;5011001;28;20211;-73
2021/11/21 04:14:04;;;;;;;31.97;16.63;;;;;;;8.03;84.11;100289.28;5012253;28;20219;-73
2021/11/21 04:16:31;;;;;;;31.67;16.93;;;;;;;8.04;84.86;100288.34;5011724;28;20255;-73
2021/11/21 04:18:58;;;;;;;26.50;15.37;;;;;;;8.07;84.64;100279.31;5005284;28;20902;-72
2021/11/21 04:21:26;;;;;;;25.17;15.47;;;;;;;8.06;84.45;100288.25;5004850;28;20673;-73
2021/11/21 04:23:53;;;;;;;30.97;16.53;;;;;;;8.04;84.33;100271.56;4997298;28;20214;-71
2021/11/21 04:26:20;;;;;;;27.63;17.07;;;;;;;8.04;85.14;100287.47;5000495;28;20240;-73
2021/11/21 04:28:47;;;;;;;29.40;16.70;;;;;;;8.03;85.28;100283.97;5004675;28;20302;-73
2021/11/21 04:31:13;;;;;;;32.50;17.50;;;;;;;8.02;84.76;100279.63;4997118;28;20222;-73
2021/11/21 04:33:40;;;;;;;28.90;16.93;;;;;;;8.04;84.51;100280.38;5004727;28;20235;-73
2021/11/21 04:36:06;;;;;;;30.87;17.07;;;;;;;8.05;84.88;100279.44;5000881;28;20239;-73
2021/11/21 04:38:34;;;;;;;27.10;17.67;;;;;;;8.06;84.61;100275.00;4997449;28;20211;-72
2021/11/21 04:41:01;;;;;;;33.80;19.07;;;;;;;8.04;85.33;100268.91;5000891;28;20207;-72
2021/11/21 04:43:28;;;;;;;31.63;18.13;;;;;;;8.06;85.28;100272.34;5004555;28;20221;-73
2021/11/21 04:45:55;;;;;;;32.97;18.67;;;;;;;8.07;85.52;100269.56;4996341;28;20219;-73
2021/11/21 04:48:23;;;;;;;32.47;17.80;;;;;;;8.07;85.49;100264.25;4995129;28;20195;-73
2021/11/21 04:50:49;;;;;;;30.00;17.73;;;;;;;8.06;85.48;100259.91;5001754;28;20210;-72
2021/11/21 04:53:16;;;;;;;34.73;18.07;;;;;;;8.06;85.73;100257.25;5004724;28;20214;-72
2021/11/21 04:55:44;;;;;;;33.30;18.53;;;;;;;8.08;84.99;100259.81;5002494;28;20549;-73
2021/11/21 04:58:14;;;;;;;32.97;18.03;;;;;;;8.07;85.65;100244.84;4996252;28;20215;-72
2021/11/21 05:00:41;;;;;;;31.03;18.37;;;;;;;8.05;86.07;100244.97;5010731;28;20207;-73
2021/11/21 05:03:08;;;;;;;37.20;19.07;;;;;;;8.04;85.77;100251.22;4996296;28;20237;-73
2021/11/21 05:05:35;;;;;;;34.73;17.60;;;;;;;8.02;86.05;100248.66;5002441;28;20214;-73
2021/11/21 05:08:04;;;;;;;30.70;18.07;;;;;;;8.03;85.59;100254.81;5004906;28;20211;-73
2021/11/21 05:10:31;;;;;;;36.20;19.03;;;;;;;8.03;86.50;100252.16;5009539;28;20242;-73
2021/11/21 05:12:59;;;;;;;28.20;18.20;;;;;;;8.04;86.43;100250.34;5006576;28;20203;-73
2021/11/21 05:15:25;;;;;;;32.57;18.57;;;;;;;8.04;85.99;100245.06;5004240;28;20266;-73
2021/11/21 05:17:53;;;;;;;30.93;18.33;;;;;;;8.02;86.07;100245.13;4999745;28;20318;-73
2021/11/21 05:20:21;;;;;;;30.70;16.83;;;;;;;8.01;85.79;100246.09;4996200;28;20700;-73
2021/11/21 05:22:48;;;;;;;24.50;14.60;;;;;;;8.01;86.26;100243.44;5008881;28;20226;-73
2021/11/21 05:25:16;;;;;;;28.23;15.57;;;;;;;8.01;86.21;100238.13;4998517;28;20724;-73
2021/11/21 05:27:47;;;;;;;26.23;15.13;;;;;;;8.00;85.96;100231.97;4967448;28;1058549;-73
2021/11/21 05:30:16;;;;;;;23.93;15.30;;;;;;;8.03;86.67;100230.94;5001595;28;20293;-72
2021/11/21 05:32:43;;;;;;;25.03;16.50;;;;;;;8.00;86.08;100223.16;5005331;28;20212;-73
2021/11/21 05:35:09;;;;;;;27.93;16.33;;;;;;;7.98;86.65;100217.94;5002861;28;20242;-71
2021/11/21 05:37:36;;;;;;;25.50;16.00;;;;;;;8.00;86.74;100215.19;4991498;28;20231;-72
2021/11/21 05:40:04;;;;;;;25.07;15.07;;;;;;;7.99;86.06;100213.50;5001672;28;20215;-72
2021/11/21 05:42:31;;;;;;;28.70;16.13;;;;;;;7.98;86.50;100209.13;5004532;28;20215;-73
2021/11/21 05:44:57;;;;;;;25.00;15.53;;;;;;;8.01;86.35;100206.31;5003014;28;20204;-73
2021/11/21 05:47:25;;;;;;;22.13;14.13;;;;;;;8.00;87.01;100201.94;4992512;28;20251;-72
2021/11/21 05:49:52;;;;;;;22.80;13.80;;;;;;;8.01;86.77;100208.97;5002856;28;20214;-73
2021/11/21 05:52:18;;;;;;;20.23;13.70;;;;;;;7.98;86.41;100202.03;5008414;28;20222;-72
2021/11/21 05:54:45;;;;;;;22.33;13.73;;;;;;;7.98;87.15;100199.38;5010930;28;20230;-73
2021/11/21 05:57:12;;;;;;;18.87;13.37;;;;;;;7.99;87.15;100192.28;5007796;28;20594;-73
2021/11/21 05:59:39;;;;;;;22.43;13.90;;;;;;;7.98;87.08;100193.22;4997787;28;21156;-73
2021/11/21 06:02:06;;;;;;;21.20;13.53;;;;;;;7.99;86.80;100189.63;5009404;28;20199;-74
2021/11/21 06:04:34;;;;;;;19.13;13.03;;;;;;;7.99;86.57;100187.84;4997254;28;20219;-73
2021/11/21 06:07:01;;;;;;;19.03;13.07;;;;;;;7.97;87.18;100180.91;5008090;28;20235;-73
2021/11/21 06:09:28;;;;;;;21.43;12.90;;;;;;;8.00;86.51;100178.06;5010336;28;20210;-73
2021/11/21 06:11:54;;;;;;;21.50;12.90;;;;;;;7.97;86.61;100178.25;5009914;28;20225;-72
2021/11/21 06:14:21;;;;;;;20.43;12.80;;;;;;;7.99;87.02;100171.91;5009913;28;20235;-73
2021/11/21 06:16:47;;;;;;;21.03;13.37;;;;;;;7.98;86.88;100169.34;5009871;28;20234;-73
2021/11/21 06:19:14;;;;;;;20.70;12.53;;;;;;;7.96;86.69;100176.56;5010981;28;20499;-71
2021/11/21 06:21:42;;;;;;;22.00;14.03;;;;;;;7.95;86.81;100174.84;5010521;28;20207;-72
2021/11/21 06:24:08;;;;;;;20.97;11.90;;;;;;;7.95;87.15;100180.16;5005111;28;20199;-71
2021/11/21 06:26:35;;;;;;;18.90;12.17;;;;;;;7.97;86.84;100178.25;5005091;28;20724;-72
2021/11/21 06:29:02;;;;;;;18.17;11.77;;;;;;;7.97;86.79;100184.41;5009028;28;20215;-71
2021/11/21 06:31:29;;;;;;;17.60;11.97;;;;;;;7.96;86.78;100187.16;5010389;28;20207;-71
2021/11/21 06:33:56;;;;;;;18.37;12.57;;;;;;;7.96;86.96;100187.16;5010287;28;20301;-71
2021/11/21 06:36:23;;;;;;;19.90;13.07;;;;;;;7.96;87.02;100179.19;5006651;28;20227;-71
2021/11/21 06:38:51;;;;;;;19.93;12.93;;;;;;;7.96;87.02;100184.50;4993711;28;20222;-71
2021/11/21 06:41:19;;;;;;;20.93;12.60;;;;;;;7.97;87.51;100183.56;4997159;28;20222;-70
2021/11/21 06:43:46;;;;;;;21.63;13.97;;;;;;;7.99;87.17;100186.97;4991473;28;20215;-70
2021/11/21 06:46:14;;;;;;;19.17;12.87;;;;;;;7.99;86.91;100186.97;5009760;28;20238;-71
2021/11/21 06:48:41;;;;;;;18.17;12.47;;;;;;;7.99;87.12;100189.63;5009957;28;20211;-71
2021/11/21 06:51:08;;;;;;;21.47;13.20;;;;;;;8.00;86.27;100188.69;5008886;28;20217;-71
2021/11/21 06:53:35;;;;;;;16.70;10.30;;;;;;;8.02;87.23;100187.66;5009724;28;20306;-71
2021/11/21 06:56:03;;;;;;;17.53;11.23;;;;;;;8.00;87.20;100188.69;5007729;28;20218;-71
2021/11/21 06:58:29;;;;;;;14.70;10.40;;;;;;;7.99;86.50;100189.63;4994004;28;20588;-71
2021/11/21 07:00:56;;;;;;;17.77;11.67;;;;;;;7.98;87.50;100191.44;5008591;28;20214;-71
2021/11/21 07:03:22;;;;;;;17.20;12.27;;;;;;;7.98;86.92;100190.56;5002629;28;20756;-71
2021/11/21 07:05:49;;;;;;;19.33;12.77;;;;;;;7.99;86.89;100179.88;5003499;28;20210;-71
2021/11/21 07:08:16;;;;;;;21.83;12.43;;;;;;;7.99;87.10;100187.84;4994379;28;20306;-71
2021/11/21 07:10:43;;;;;;;16.43;12.00;;;;;;;8.00;87.07;100188.69;5009021;28;20714;-71
2021/11/21 07:13:11;;;;;;;18.87;12.03;;;;;;;7.99;87.32;100186.97;5006052;28;20217;-70
2021/11/21 07:15:37;;;;;;;17.77;12.10;;;;;;;8.00;88.13;100194.00;5004267;28;20229;-71
2021/11/21 07:18:04;;;;;;;19.30;12.87;;;;;;;7.98;87.43;100193.22;5006377;28;20202;-71
2021/11/21 07:20:30;;;;;;;19.33;12.97;;;;;;;7.98;87.91;100185.28;5011592;28;20682;-71
2021/11/21 07:22:57;;;;;;;21.20;12.77;;;;;;;7.98;87.43;100190.56;5010018;28;20207;-71
2021/11/21 07:25:25;;;;;;;17.77;11.50;;;;;;;7.97;87.51;100195.03;5010942;28;20214;-72
2021/11/21 07:27:53;;;;;;;18.57;12.77;;;;;;;7.96;88.44;100198.63;5010285;28;20230;-71
2021/11/21 07:30:23;;;;;;;19.37;12.43;;;;;;;7.97;88.16;100195.03;5013332;28;20204;-71
2021/11/21 07:32:51;;;;;;;20.00;12.87;;;;;;;7.97;88.03;100188.88;5017778;28;20202;-71
2021/11/21 07:35:19;;;;;;;21.83;13.50;;;;;;;7.97;88.04;100202.13;5017201;28;20223;-71
2021/11/21 07:37:46;;;;;;;22.40;13.10;;;;;;;7.97;88.15;100192.38;5017784;28;20222;-71
2021/11/21 07:40:14;;;;;;;18.63;12.53;;;;;;;7.96;88.56;100190.66;5008461;28;20203;-71
2021/11/21 07:42:42;;;;;;;21.80;13.47;;;;;;;7.95;88.57;100194.25;5014427;28;20203;-70
2021/11/21 07:45:10;;;;;;;20.57;12.57;;;;;;;7.94;88.56;100200.50;5007950;28;20291;-71
2021/11/21 07:47:39;;;;;;;21.13;13.80;;;;;;;7.92;89.18;100201.53;4997437;28;20282;-70
2021/11/21 07:50:07;;;;;;;24.37;12.20;;;;;;;7.91;89.51;100205.97;5002101;28;20222;-71
2021/11/21 07:52:33;;;;;;;19.30;12.20;;;;;;;7.94;89.02;100205.81;5003242;28;20203;-72
2021/11/21 07:55:00;;;;;;;19.90;11.97;;;;;;;7.96;89.05;100208.38;4996940;28;20318;-71
2021/11/21 07:57:26;;;;;;;19.17;11.07;;;;;;;7.95;89.61;100206.66;5001071;28;20230;-71
2021/11/21 07:59:53;;;;;;;16.13;10.77;;;;;;;7.96;89.54;100216.31;5008396;28;20207;-71
2021/11/21 08:02:19;;;;;;;17.03;11.73;;;;;;;7.98;89.48;100217.09;5010033;28;20203;-71
2021/11/21 08:04:47;;;;;;;16.03;10.37;;;;;;;7.97;89.66;100207.44;5005768;28;20206;-71
2021/11/21 08:07:13;;;;;;;15.63;10.67;;;;;;;7.97;89.12;100213.59;5007199;28;20227;-71
2021/11/21 08:09:40;;;;;;;16.03;10.50;;;;;;;7.98;89.73;100217.09;5011069;28;20233;-71
2021/11/21 08:12:08;;;;;;;18.13;11.77;;;;;;;8.00;90.31;100220.50;5017718;28;20210;-71
2021/11/21 08:14:34;;;;;;;15.33;11.10;;;;;;;8.00;89.89;100217.84;5017650;28;20297;-70
2021/11/21 08:17:01;;;;;;;13.90;9.63;;;;;;;8.01;90.40;100211.59;5015576;28;20709;-70
2021/11/21 08:19:27;;;;;;;13.50;9.60;;;;;;;8.03;89.76;100220.34;5011257;28;20329;-72
2021/11/21 08:21:55;;;;;;;14.27;9.53;;;;;;;8.06;90.05;100216.66;5013347;28;20202;-72
2021/11/21 08:24:22;;;;;;;14.63;9.60;;;;;;;8.07;89.56;100221.81;5010227;28;20221;-72
2021/11/21 08:26:48;;;;;;;10.83;8.07;;;;;;;8.08;89.93;100223.53;5020146;28;20725;-72
2021/11/21 08:29:15;;;;;;;11.83;8.93;;;;;;;8.10;89.85;100229.59;5018942;28;20206;-72
2021/11/21 08:31:43;;;;;;;11.80;8.60;;;;;;;8.13;89.57;100231.22;5015070;28;20207;-72
2021/11/21 08:34:09;;;;;;;10.77;8.40;;;;;;;8.13;89.82;100229.44;5010773;28;20250;-72
2021/11/21 08:36:36;;;;;;;10.73;8.03;;;;;;;8.17;90.07;100227.47;5011262;28;20230;-71
2021/11/21 08:39:04;;;;;;;10.30;7.70;;;;;;;8.15;89.85;100232.84;5009112;28;20214;-71
2021/11/21 08:41:31;;;;;;;9.93;7.13;;;;;;;8.17;90.02;100230.09;5012585;28;20660;-72
2021/11/21 08:43:57;;;;;;;9.13;6.60;;;;;;;8.20;90.18;100225.47;5012393;28;20203;-72
2021/11/21 08:46:24;;;;;;;8.97;6.80;;;;;;;8.23;89.91;100227.94;5010500;28;20230;-72
2021/11/21 08:48:50;;;;;;;8.40;6.73;;;;;;;8.25;89.70;100231.34;5005327;28;20220;-71
2021/11/21 08:51:17;;;;;;;9.33;6.40;;;;;;;8.27;90.14;100223.28;4994808;28;20218;-72
2021/11/21 08:53:45;;;;;;;9.27;6.60;;;;;;;8.29;89.63;100227.56;5005094;28;20211;-72
2021/11/21 08:56:13;;;;;;;8.83;6.40;;;;;;;8.32;89.90;100223.91;4996340;28;20231;-71
2021/11/21 08:58:40;;;;;;;10.30;7.40;;;;;;;8.33;90.57;100234.44;5007903;28;20203;-72
2021/11/21 09:01:06;;;;;;;11.17;7.73;;;;;;;8.37;89.47;100232.44;5011113;28;20199;-72
2021/11/21 09:03:33;;;;;;;12.20;8.43;;;;;;;8.40;89.79;100234.91;5010058;28;20218;-71
2021/11/21 09:06:00;;;;;;;9.47;6.90;;;;;;;8.42;90.17;100238.31;5011177;28;20249;-72
2021/11/21 09:08:27;;;;;;;7.93;6.33;;;;;;;8.41;88.98;100235.78;5007482;28;20203;-71
2021/11/21 09:10:53;;;;;;;8.90;7.40;;;;;;;8.44;89.45;100238.22;5010590;28;20209;-71
2021/11/21 09:13:21;;;;;;;6.97;5.77;;;;;;;8.45;88.94;100238.13;5009188;28;20207;-71
2021/11/21 09:15:49;;;;;;;8.73;6.70;;;;;;;8.48;88.97;100237.94;5005492;28;20727;-71
2021/11/21 09:18:16;;;;;;;9.47;7.17;;;;;;;8.49;88.91;100238.78;5012997;28;20211;-72
2021/11/21 09:20:42;;;;;;;8.90;6.60;;;;;;;8.51;89.67;100242.22;5004661;28;20290;-71
2021/11/21 09:23:11;;;;;;;8.57;6.40;;;;;;;8.52;89.38;100250.09;5012403;28;20225;-72
2021/11/21 09:25:38;;;;;;;8.77;6.23;;;;;;;8.53;89.49;100248.28;5006291;28;20257;-71
2021/11/21 09:28:04;;;;;;;8.87;6.90;;;;;;;8.54;89.25;100252.66;5063581;22;20721;-71
2021/11/21 09:30:33;;;;;;;8.03;6.60;;;;;;;8.56;88.72;100245.44;5044262;28;20217;-72
2021/11/21 09:33:00;;;;;;;9.47;6.90;;;;;;;8.58;89.31;100254.16;5043629;28;20202;-71
2021/11/21 09:35:26;;;;;;;8.53;6.20;;;;;;;8.61;88.61;100251.31;5043436;28;20218;-70
2021/11/21 09:37:53;;;;;;;9.27;7.10;;;;;;;8.61;88.52;100243.34;5043621;28;20225;-71
2021/11/21 09:40:19;;;;;;;9.90;7.30;;;;;;;8.62;88.98;100243.25;5039782;28;20198;-71
2021/11/21 09:42:46;;;;;;;8.33;6.90;;;;;;;8.65;89.26;100236.91;5037791;28;20201;-72
2021/11/21 09:45:18;;;;;;;8.77;6.70;;;;;;;8.67;88.76;100242.97;5044001;28;20207;-71
2021/11/21 09:47:51;;;;;;;7.50;6.13;;;;;;;8.67;88.72;100243.81;5046374;28;20226;-72
2021/11/21 09:50:18;;;;;;;7.23;5.80;;;;;;;8.67;88.89;100235.84;5040997;28;20210;-72
2021/11/21 09:52:44;;;;;;;7.43;6.03;;;;;;;8.68;88.88;100244.69;5042414;28;20208;-71
2021/11/21 09:55:11;;;;;;;9.03;6.43;;;;;;;8.69;89.38;100246.38;5044583;28;20198;-72
2021/11/21 09:57:37;;;;;;;8.97;6.27;;;;;;;8.70;89.08;100248.09;5043290;28;20234;-71
2021/11/21 10:00:07;;;;;;;6.80;5.43;;;;;;;8.70;89.11;100240.97;5034128;28;20202;-70
2021/11/21 10:02:36;;;;;;;7.43;5.73;;;;;;;8.70;88.98;100243.63;5045231;28;20671;-73
2021/11/21 10:05:07;;;;;;;6.90;5.37;;;;;;;8.71;89.29;100239.19;5039018;28;20301;-71
2021/11/21 10:07:35;;;;;;;8.00;5.90;;;;;;;8.71;88.73;100239.19;5043206;28;20299;-72
2021/11/21 10:10:04;;;;;;;6.03;5.07;;;;;;;8.72;89.46;100242.69;5041755;28;20601;-73
2021/11/21 10:12:36;;;;;;;6.43;4.83;;;;;;;8.70;89.85;100229.50;5042214;28;20212;-72
2021/11/21 10:15:07;;;;;;;8.33;5.83;;;;;;;8.72;89.84;100242.69;5041563;28;20589;-71
2021/11/21 10:17:35;;;;;;;6.63;5.40;;;;;;;8.72;89.20;100238.25;5035685;28;20233;-72
2021/11/21 10:20:09;;;;;;;7.53;6.00;;;;;;;8.75;89.63;100245.16;5038615;28;20233;-71
2021/11/21 10:22:55;;;;;;;6.73;5.23;;;;;;;8.76;89.88;100230.94;5044791;28;20212;-70
2021/11/21 10:25:49;;;;;;;7.43;5.27;;;;;;;8.79;89.23;100236.03;5042572;28;20426;-72
2021/11/21 10:28:20;;;;;;;6.17;4.57;;;;;;;8.80;89.72;100238.59;5040650;28;20230;-71
2021/11/21 10:31:10;;;;;;;6.43;4.67;;;;;;;8.84;90.22;100245.44;5034997;28;20241;-71
2021/11/21 10:33:41;;;;;;;6.73;4.63;;;;;;;8.85;89.80;100240.97;5039823;28;20209;-71
2021/11/21 10:36:11;;;;;;;5.80;4.00;;;;;;;8.86;89.51;100235.56;5038456;28;20222;-71
2021/11/21 10:38:41;;;;;;;6.73;4.57;;;;;;;8.88;89.86;100230.16;5044446;28;20209;-72
2021/11/21 10:41:11;;;;;;;7.57;5.30;;;;;;;8.91;89.82;100229.97;5038174;28;20206;-71
2021/11/21 10:43:46;;;;;;;7.10;4.73;;;;;;;8.92;90.01;100231.69;5041999;28;20206;-73
2021/11/21 10:46:30;;;;;;;8.50;5.30;;;;;;;8.93;89.94;100228.94;5039815;28;20217;-70
2021/11/21 10:49:12;;;;;;;5.50;3.27;;;;;;;8.95;89.51;100228.84;5034446;28;20212;-71
2021/11/21 10:51:41;;;;;;;4.10;2.73;;;;;;;8.95;89.73;100226.19;5043843;28;20209;-71
2021/11/21 10:54:18;;;;;;;4.70;2.50;;;;;;;8.97;90.16;100219.78;5040986;28;20217;-71
2021/11/21 10:56:46;;;;;;;5.07;3.27;;;;;;;8.98;89.88;100226.81;5045016;28;20287;-72
2021/11/21 10:59:13;;;;;;;5.10;3.33;;;;;;;9.00;89.73;100222.25;5040058;28;20203;-72
2021/11/21 11:01:40;;;;;;;4.67;2.70;;;;;;;9.01;89.66;100226.63;5038007;28;20206;-71
2021/11/21 11:04:11;;;;;;;6.33;3.67;;;;;;;9.04;89.13;100229.09;5037455;28;20210;-70
2021/11/21 11:06:38;;;;;;;69.10;29.53;;;;;;;9.08;89.18;100231.56;5034505;28;20227;-71
2021/11/21 11:09:22;;;;;;;8.37;5.50;;;;;;;9.11;89.67;100231.38;5039505;28;20221;-72
2021/11/21 11:11:50;;;;;;;61.50;31.40;;;;;;;9.13;89.13;100232.97;5029645;28;20312;-72
2021/11/21 11:14:20;;;;;;;30.23;18.83;;;;;;;9.16;89.46;100223.94;5029653;28;20214;-72
2021/11/21 11:16:48;;;;;;;11.80;6.33;;;;;;;9.17;89.20;100225.63;5032118;28;20320;-73
2021/11/21 11:19:16;;;;;;;28.83;25.80;;;;;;;9.18;88.90;100227.34;5043042;28;20209;-72
2021/11/21 11:21:44;;;;;;;44.07;33.27;;;;;;;9.20;88.09;100226.31;5037417;28;20578;-72
2021/11/21 11:24:11;;;;;;;8.63;5.23;;;;;;;9.21;88.80;100229.81;5045624;28;20217;-72